»·PEaware :: N512TF KPSP-KBUR

N512TF :: KPSP-KBUR

FLIGHT INFORMATION

Flight Status: Arrived
Operator: Privately registered:
United States
More flights under this callsign
Pilot: Zach A. (42710)
Aircraft: CESSNA 172 SKYHAWK
(C172)
More flights by this aircraft type
Origin: KPSP Palm Springs Intl
United States
Destination: KBUR Bob Hope-Burbank
United States
More flights between these airports :: More routes between these airports
Route:
File this flight plan on PilotEdge
Remarks:
Altitude:
(Current/Filed)
6,500ft
Speed:
(Current/Filed)
122kts
Departed: 24-Jan-23 06:53 PM
Arrived: 24-Jan-23 07:45 PM
Distance/Time
Traveled:
95nm/0:52
Distance/Time
To Go:
Arrived

Flight Plot

Page will automatically refresh every two minutes.

Flight plan parsing failed; only flown route is shown


Map Options




Map Legend


Flown Route
Filed Route
Departure Airport
Arrival Airport
Navaid (VOR, NDB)
Fix

Horizontal Profiles

Position Reports

Time Latitude Longitude Heading Altitude Ground
Speed
24-Jan-23 18:34 33.826067 -116.510183 271 433ft 0kts
24-Jan-23 18:35 33.826067 -116.510183 271 433ft 0kts
24-Jan-23 18:36 33.826067 -116.510183 271 433ft 0kts
24-Jan-23 18:37 33.826067 -116.510183 271 433ft 0kts
24-Jan-23 18:38 33.826067 -116.510183 271 433ft 0kts
24-Jan-23 18:39 33.826067 -116.510183 271 433ft 0kts
24-Jan-23 18:40 33.826067 -116.510183 271 433ft 0kts
24-Jan-23 18:41 33.826067 -116.510183 271 433ft 0kts
24-Jan-23 18:42 33.826067 -116.510183 271 433ft 0kts
24-Jan-23 18:43 33.826067 -116.510183 271 433ft 0kts
24-Jan-23 18:44 33.826206 -116.509985 81 433ft 12kts
24-Jan-23 18:45 33.825621 -116.506097 143 426ft 22kts
24-Jan-23 18:46 33.818552 -116.499777 142 402ft 18kts
24-Jan-23 18:47 33.818089 -116.498926 354 400ft 0kts
24-Jan-23 18:48 33.818089 -116.498926 354 400ft 0kts
24-Jan-23 18:49 33.818089 -116.498926 354 400ft 0kts
24-Jan-23 18:50 33.818089 -116.498926 354 400ft 0kts
24-Jan-23 18:51 33.819957 -116.499005 324 403ft 36kts
24-Jan-23 18:52 33.837332 -116.515202 321 1268ft 82kts
24-Jan-23 18:53 33.854014 -116.533329 321 2310ft 82kts
24-Jan-23 18:54 33.870046 -116.553025 319 3215ft 80kts
24-Jan-23 18:55 33.886683 -116.572452 314 4177ft 86kts
24-Jan-23 18:56 33.901933 -116.593725 313 5154ft 85kts
24-Jan-23 18:57 33.911867 -116.620364 285 5999ft 92kts
24-Jan-23 18:58 33.912904 -116.653994 283 6498ft 113kts
24-Jan-23 18:59 33.918528 -116.694819 291 6507ft 126kts
24-Jan-23 19:00 33.927919 -116.736263 290 6504ft 129kts
24-Jan-23 19:01 33.937687 -116.777413 290 6504ft 128kts
24-Jan-23 19:02 33.938084 -116.820856 273 6490ft 130kts
24-Jan-23 19:03 33.938697 -116.864002 284 6516ft 129kts
24-Jan-23 19:04 33.944984 -116.906784 284 6524ft 129kts
24-Jan-23 19:05 33.951104 -116.949030 283 6514ft 127kts
24-Jan-23 19:06 33.957045 -116.991090 283 6516ft 127kts
24-Jan-23 19:07 33.968531 -117.030860 296 6518ft 125kts
24-Jan-23 19:08 33.989035 -117.062514 327 6524ft 121kts
24-Jan-23 19:09 34.015473 -117.087627 327 6515ft 120kts
24-Jan-23 19:10 34.038334 -117.117100 308 6511ft 125kts
24-Jan-23 19:11 34.055841 -117.153270 308 6506ft 124kts
24-Jan-23 19:12 34.075344 -117.186445 314 6510ft 120kts
24-Jan-23 19:13 34.095316 -117.219294 314 6514ft 122kts
24-Jan-23 19:14 34.107673 -117.258791 296 6506ft 127kts
24-Jan-23 19:15 34.118027 -117.299310 296 6508ft 125kts
24-Jan-23 19:16 34.127621 -117.339708 296 6503ft 125kts
24-Jan-23 19:17 34.136744 -117.380310 296 6508ft 125kts
24-Jan-23 19:18 34.145588 -117.420684 296 6504ft 124kts
24-Jan-23 19:19 34.145794 -117.464043 274 6496ft 131kts
24-Jan-23 19:20 34.142631 -117.507749 274 6496ft 130kts
24-Jan-23 19:21 34.142406 -117.551071 279 6495ft 128kts
24-Jan-23 19:22 34.143438 -117.593628 281 6493ft 125kts
24-Jan-23 19:23 34.147485 -117.635446 284 6496ft 124kts
24-Jan-23 19:24 34.152028 -117.676743 284 6498ft 123kts
24-Jan-23 19:25 34.155377 -117.718042 279 6490ft 123kts
24-Jan-23 19:26 34.154932 -117.760290 272 6521ft 125kts
24-Jan-23 19:27 34.152529 -117.802374 272 6514ft 124kts
24-Jan-23 19:28 34.150529 -117.844216 272 6517ft 126kts
24-Jan-23 19:29 34.148619 -117.886548 271 6515ft 126kts
24-Jan-23 19:30 34.146660 -117.928506 272 6519ft 127kts
24-Jan-23 19:31 34.145426 -117.971200 275 6517ft 126kts
24-Jan-23 19:32 34.145411 -118.014112 275 6526ft 128kts
24-Jan-23 19:33 34.143941 -118.057262 262 6515ft 131kts
24-Jan-23 19:34 34.136311 -118.100169 263 6225ft 124kts
24-Jan-23 19:35 34.129645 -118.139403 262 5705ft 117kts
24-Jan-23 19:36 34.123000 -118.180573 262 5222ft 127kts
24-Jan-23 19:37 34.120804 -118.222183 299 4737ft 124kts
24-Jan-23 19:38 34.137211 -118.258904 302 4231ft 123kts
24-Jan-23 19:39 34.153976 -118.294925 305 3655ft 122kts
24-Jan-23 19:40 34.174506 -118.326188 311 2667ft 116kts
24-Jan-23 19:41 34.180485 -118.359818 265 2071ft 103kts
24-Jan-23 19:42 34.187964 -118.385990 7 1753ft 85kts
24-Jan-23 19:43 34.197891 -118.366357 91 738ft 68kts
24-Jan-23 19:44 34.198658 -118.360235 0 717ft 0kts
24-Jan-23 19:45 34.198875 -118.358369 86 715ft 18kts
24-Jan-23 19:46 34.200301 -118.359534 343 720ft 0kts
24-Jan-23 19:47 34.200302 -118.359535 343 720ft 0kts
24-Jan-23 19:48 34.200302 -118.359535 343 720ft 0kts

Navigation Log

Ident Type
Flight plan parsing failed, navigation log unavailable